sensor_id;sensor_type;location;lat;lon;timestamp;temperature;humidity
27376;DHT22;14844;51.302;6.354;2022-08-14T00:00:52;18.10;91.70
27376;DHT22;14844;51.302;6.354;2022-08-14T00:03:23;18.10;91.70
27376;DHT22;14844;51.302;6.354;2022-08-14T00:05:49;18.10;91.60
27376;DHT22;14844;51.302;6.354;2022-08-14T00:08:15;18.20;91.50
27376;DHT22;14844;51.302;6.354;2022-08-14T00:10:41;18.20;91.40
27376;DHT22;14844;51.302;6.354;2022-08-14T00:13:07;18.30;91.30
27376;DHT22;14844;51.302;6.354;2022-08-14T00:15:37;18.40;91.00
27376;DHT22;14844;51.302;6.354;2022-08-14T00:18:04;18.40;90.80
27376;DHT22;14844;51.302;6.354;2022-08-14T00:20:32;18.50;90.70
27376;DHT22;14844;51.302;6.354;2022-08-14T00:22:59;18.50;90.50
27376;DHT22;14844;51.302;6.354;2022-08-14T00:25:26;18.40;90.50
27376;DHT22;14844;51.302;6.354;2022-08-14T00:27:52;18.50;90.50
27376;DHT22;14844;51.302;6.354;2022-08-14T00:30:18;18.50;90.40
27376;DHT22;14844;51.302;6.354;2022-08-14T00:32:44;18.50;90.30
27376;DHT22;14844;51.302;6.354;2022-08-14T00:35:10;18.50;90.10
27376;DHT22;14844;51.302;6.354;2022-08-14T00:37:43;18.50;90.00
27376;DHT22;14844;51.302;6.354;2022-08-14T00:40:12;18.60;89.80
27376;DHT22;14844;51.302;6.354;2022-08-14T00:42:38;18.60;89.70
27376;DHT22;14844;51.302;6.354;2022-08-14T00:45:06;18.60;89.60
27376;DHT22;14844;51.302;6.354;2022-08-14T00:47:32;18.70;88.70
27376;DHT22;14844;51.302;6.354;2022-08-14T00:50:00;18.80;88.40
27376;DHT22;14844;51.302;6.354;2022-08-14T00:52:27;18.80;88.00
27376;DHT22;14844;51.302;6.354;2022-08-14T00:54:53;18.80;87.30
27376;DHT22;14844;51.302;6.354;2022-08-14T00:57:24;18.90;87.60
27376;DHT22;14844;51.302;6.354;2022-08-14T00:59:50;18.90;87.20
27376;DHT22;14844;51.302;6.354;2022-08-14T01:02:18;18.80;87.10
27376;DHT22;14844;51.302;6.354;2022-08-14T01:04:45;18.90;87.40
27376;DHT22;14844;51.302;6.354;2022-08-14T01:07:12;18.80;87.70
27376;DHT22;14844;51.302;6.354;2022-08-14T01:09:44;18.80;87.80
27376;DHT22;14844;51.302;6.354;2022-08-14T01:12:11;18.80;87.90
27376;DHT22;14844;51.302;6.354;2022-08-14T01:14:37;18.70;88.20
27376;DHT22;14844;51.302;6.354;2022-08-14T01:17:03;18.70;87.80
27376;DHT22;14844;51.302;6.354;2022-08-14T01:19:29;18.70;88.30
27376;DHT22;14844;51.302;6.354;2022-08-14T01:22:13;18.70;88.30
27376;DHT22;14844;51.302;6.354;2022-08-14T01:24:40;18.70;88.40
27376;DHT22;14844;51.302;6.354;2022-08-14T01:27:06;18.70;88.70
27376;DHT22;14844;51.302;6.354;2022-08-14T01:29:31;18.70;88.30
27376;DHT22;14844;51.302;6.354;2022-08-14T01:32:03;18.80;88.10
27376;DHT22;14844;51.302;6.354;2022-08-14T01:34:29;18.80;87.80
27376;DHT22;14844;51.302;6.354;2022-08-14T01:36:55;18.90;87.50
27376;DHT22;14844;51.302;6.354;2022-08-14T01:39:21;19.00;87.60
27376;DHT22;14844;51.302;6.354;2022-08-14T01:41:48;19.10;87.60
27376;DHT22;14844;51.302;6.354;2022-08-14T01:44:22;19.00;87.70
27376;DHT22;14844;51.302;6.354;2022-08-14T01:46:51;19.00;88.30
27376;DHT22;14844;51.302;6.354;2022-08-14T01:49:19;18.90;88.30
27376;DHT22;14844;51.302;6.354;2022-08-14T01:51:46;18.80;89.00
27376;DHT22;14844;51.302;6.354;2022-08-14T01:54:17;18.80;89.20
27376;DHT22;14844;51.302;6.354;2022-08-14T01:56:50;18.80;89.40
27376;DHT22;14844;51.302;6.354;2022-08-14T02:01:42;18.50;89.70
27376;DHT22;14844;51.302;6.354;2022-08-14T02:04:09;18.40;90.10
27376;DHT22;14844;51.302;6.354;2022-08-14T02:06:36;18.40;90.40
27376;DHT22;14844;51.302;6.354;2022-08-14T02:09:03;18.20;90.50
27376;DHT22;14844;51.302;6.354;2022-08-14T02:11:29;18.10;90.60
27376;DHT22;14844;51.302;6.354;2022-08-14T02:14:00;18.00;90.80
27376;DHT22;14844;51.302;6.354;2022-08-14T02:16:28;17.90;91.00
27376;DHT22;14844;51.302;6.354;2022-08-14T02:19:00;17.80;91.20
27376;DHT22;14844;51.302;6.354;2022-08-14T02:21:28;17.80;91.80
27376;DHT22;14844;51.302;6.354;2022-08-14T02:24:01;17.80;91.50
27376;DHT22;14844;51.302;6.354;2022-08-14T02:26:30;17.70;91.60
27376;DHT22;14844;51.302;6.354;2022-08-14T02:28:58;17.70;92.40
27376;DHT22;14844;51.302;6.354;2022-08-14T02:31:28;17.70;92.60
27376;DHT22;14844;51.302;6.354;2022-08-14T02:34:08;17.80;92.70
27376;DHT22;14844;51.302;6.354;2022-08-14T02:36:36;18.00;92.80
27376;DHT22;14844;51.302;6.354;2022-08-14T02:39:08;18.00;93.00
27376;DHT22;14844;51.302;6.354;2022-08-14T02:41:35;17.90;92.80
27376;DHT22;14844;51.302;6.354;2022-08-14T02:44:02;17.80;92.90
27376;DHT22;14844;51.302;6.354;2022-08-14T02:46:28;17.70;93.40
27376;DHT22;14844;51.302;6.354;2022-08-14T02:48:55;17.60;92.90
27376;DHT22;14844;51.302;6.354;2022-08-14T02:51:21;17.60;92.50
27376;DHT22;14844;51.302;6.354;2022-08-14T02:53:46;17.40;92.70
27376;DHT22;14844;51.302;6.354;2022-08-14T02:56:16;17.30;92.90
27376;DHT22;14844;51.302;6.354;2022-08-14T02:58:44;17.30;93.10
27376;DHT22;14844;51.302;6.354;2022-08-14T03:01:14;17.20;93.30
27376;DHT22;14844;51.302;6.354;2022-08-14T03:03:41;17.10;93.40
27376;DHT22;14844;51.302;6.354;2022-08-14T03:06:08;17.10;93.70
27376;DHT22;14844;51.302;6.354;2022-08-14T03:08:35;17.20;94.50
27376;DHT22;14844;51.302;6.354;2022-08-14T03:11:07;17.30;94.50
27376;DHT22;14844;51.302;6.354;2022-08-14T03:13:44;17.40;94.20
27376;DHT22;14844;51.302;6.354;2022-08-14T03:16:13;17.40;94.20
27376;DHT22;14844;51.302;6.354;2022-08-14T03:18:41;17.20;94.60
27376;DHT22;14844;51.302;6.354;2022-08-14T03:21:12;17.20;94.70
27376;DHT22;14844;51.302;6.354;2022-08-14T03:23:40;17.10;94.70
27376;DHT22;14844;51.302;6.354;2022-08-14T03:26:10;17.00;94.80
27376;DHT22;14844;51.302;6.354;2022-08-14T03:28:37;16.90;94.90
27376;DHT22;14844;51.302;6.354;2022-08-14T03:31:06;16.80;95.20
27376;DHT22;14844;51.302;6.354;2022-08-14T03:33:32;16.70;95.50
27376;DHT22;14844;51.302;6.354;2022-08-14T03:35:59;16.50;95.60
27376;DHT22;14844;51.302;6.354;2022-08-14T03:38:25;16.50;96.00
27376;DHT22;14844;51.302;6.354;2022-08-14T03:40:51;16.40;96.80
27376;DHT22;14844;51.302;6.354;2022-08-14T03:43:16;16.40;97.30
27376;DHT22;14844;51.302;6.354;2022-08-14T03:45:42;16.40;97.60
27376;DHT22;14844;51.302;6.354;2022-08-14T03:48:17;16.60;97.30
27376;DHT22;14844;51.302;6.354;2022-08-14T03:50:49;16.70;97.00
27376;DHT22;14844;51.302;6.354;2022-08-14T03:53:17;16.70;96.80
27376;DHT22;14844;51.302;6.354;2022-08-14T03:55:44;16.70;96.90
27376;DHT22;14844;51.302;6.354;2022-08-14T03:58:10;16.50;97.20
27376;DHT22;14844;51.302;6.354;2022-08-14T04:00:37;16.40;97.70
27376;DHT22;14844;51.302;6.354;2022-08-14T04:03:06;16.40;97.70
27376;DHT22;14844;51.302;6.354;2022-08-14T04:05:33;16.30;98.00
27376;DHT22;14844;51.302;6.354;2022-08-14T04:07:59;16.20;98.20
27376;DHT22;14844;51.302;6.354;2022-08-14T04:10:25;16.10;98.50
27376;DHT22;14844;51.302;6.354;2022-08-14T04:12:51;16.00;98.80
27376;DHT22;14844;51.302;6.354;2022-08-14T04:15:16;16.00;99.20
27376;DHT22;14844;51.302;6.354;2022-08-14T04:17:45;15.90;99.40
27376;DHT22;14844;51.302;6.354;2022-08-14T04:20:11;15.80;99.80
27376;DHT22;14844;51.302;6.354;2022-08-14T04:22:37;15.80;99.90
27376;DHT22;14844;51.302;6.354;2022-08-14T04:25:07;15.80;99.90
27376;DHT22;14844;51.302;6.354;2022-08-14T04:27:32;15.80;99.90
27376;DHT22;14844;51.302;6.354;2022-08-14T04:30:00;15.80;99.90
27376;DHT22;14844;51.302;6.354;2022-08-14T04:32:25;15.90;99.90
27376;DHT22;14844;51.302;6.354;2022-08-14T04:34:52;15.90;99.90
27376;DHT22;14844;51.302;6.354;2022-08-14T04:37:22;16.00;99.90
27376;DHT22;14844;51.302;6.354;2022-08-14T04:40:07;16.30;99.90
27376;DHT22;14844;51.302;6.354;2022-08-14T04:42:51;16.40;99.60
27376;DHT22;14844;51.302;6.354;2022-08-14T04:45:35;16.40;99.50
27376;DHT22;14844;51.302;6.354;2022-08-14T04:48:09;16.30;99.80
27376;DHT22;14844;51.302;6.354;2022-08-14T04:50:43;16.20;99.90
27376;DHT22;14844;51.302;6.354;2022-08-14T04:53:11;16.20;99.90
27376;DHT22;14844;51.302;6.354;2022-08-14T04:55:38;16.20;99.90
27376;DHT22;14844;51.302;6.354;2022-08-14T04:58:05;16.20;99.90
27376;DHT22;14844;51.302;6.354;2022-08-14T05:00:31;16.30;99.90
27376;DHT22;14844;51.302;6.354;2022-08-14T05:02:57;16.30;99.90
27376;DHT22;14844;51.302;6.354;2022-08-14T05:05:23;16.40;99.90
27376;DHT22;14844;51.302;6.354;2022-08-14T05:07:50;16.40;99.90
27376;DHT22;14844;51.302;6.354;2022-08-14T05:10:16;16.50;99.90
27376;DHT22;14844;51.302;6.354;2022-08-14T05:12:48;16.60;99.90
27376;DHT22;14844;51.302;6.354;2022-08-14T05:15:14;16.80;99.90
27376;DHT22;14844;51.302;6.354;2022-08-14T05:17:42;16.80;99.90
27376;DHT22;14844;51.302;6.354;2022-08-14T05:20:08;17.00;99.90
27376;DHT22;14844;51.302;6.354;2022-08-14T05:22:34;17.10;99.90
27376;DHT22;14844;51.302;6.354;2022-08-14T05:25:00;17.20;99.90
27376;DHT22;14844;51.302;6.354;2022-08-14T05:27:28;17.40;99.90
27376;DHT22;14844;51.302;6.354;2022-08-14T05:29:53;17.50;99.90
27376;DHT22;14844;51.302;6.354;2022-08-14T05:32:20;17.70;99.90
27376;DHT22;14844;51.302;6.354;2022-08-14T05:34:46;17.80;99.60
27376;DHT22;14844;51.302;6.354;2022-08-14T05:37:11;18.00;99.40
27376;DHT22;14844;51.302;6.354;2022-08-14T05:39:38;18.20;99.20
27376;DHT22;14844;51.302;6.354;2022-08-14T05:42:05;18.30;98.80
27376;DHT22;14844;51.302;6.354;2022-08-14T05:44:31;18.50;98.70
27376;DHT22;14844;51.302;6.354;2022-08-14T05:46:57;18.70;98.70
27376;DHT22;14844;51.302;6.354;2022-08-14T05:49:23;18.90;98.80
27376;DHT22;14844;51.302;6.354;2022-08-14T05:51:48;19.10;98.60
27376;DHT22;14844;51.302;6.354;2022-08-14T05:54:14;19.30;98.20
27376;DHT22;14844;51.302;6.354;2022-08-14T05:56:39;19.40;98.10
27376;DHT22;14844;51.302;6.354;2022-08-14T05:59:05;19.70;97.50
27376;DHT22;14844;51.302;6.354;2022-08-14T06:01:30;19.90;97.00
27376;DHT22;14844;51.302;6.354;2022-08-14T06:03:56;20.30;96.60
27376;DHT22;14844;51.302;6.354;2022-08-14T06:06:22;20.50;96.00
27376;DHT22;14844;51.302;6.354;2022-08-14T06:08:47;20.80;95.50
27376;DHT22;14844;51.302;6.354;2022-08-14T06:11:13;21.00;95.10
27376;DHT22;14844;51.302;6.354;2022-08-14T06:13:41;21.20;94.90
27376;DHT22;14844;51.302;6.354;2022-08-14T06:16:07;21.40;94.50
27376;DHT22;14844;51.302;6.354;2022-08-14T06:18:33;21.70;94.10
27376;DHT22;14844;51.302;6.354;2022-08-14T06:21:03;21.90;93.50
27376;DHT22;14844;51.302;6.354;2022-08-14T06:23:28;22.10;93.40
27376;DHT22;14844;51.302;6.354;2022-08-14T06:25:54;22.20;93.10
27376;DHT22;14844;51.302;6.354;2022-08-14T06:28:22;22.40;92.70
27376;DHT22;14844;51.302;6.354;2022-08-14T06:30:48;22.60;92.50
27376;DHT22;14844;51.302;6.354;2022-08-14T06:33:15;22.70;92.20
27376;DHT22;14844;51.302;6.354;2022-08-14T06:35:42;22.90;91.90
27376;DHT22;14844;51.302;6.354;2022-08-14T06:38:07;23.10;92.00
27376;DHT22;14844;51.302;6.354;2022-08-14T06:40:35;23.10;91.50
27376;DHT22;14844;51.302;6.354;2022-08-14T06:43:11;23.40;91.50
27376;DHT22;14844;51.302;6.354;2022-08-14T06:45:40;23.60;91.00
27376;DHT22;14844;51.302;6.354;2022-08-14T06:48:23;23.80;90.60
27376;DHT22;14844;51.302;6.354;2022-08-14T06:50:50;23.90;90.50
27376;DHT22;14844;51.302;6.354;2022-08-14T06:53:16;23.90;90.00
27376;DHT22;14844;51.302;6.354;2022-08-14T06:55:44;24.00;90.00
27376;DHT22;14844;51.302;6.354;2022-08-14T06:58:15;24.10;89.80
27376;DHT22;14844;51.302;6.354;2022-08-14T07:00:42;24.20;88.60
27376;DHT22;14844;51.302;6.354;2022-08-14T07:03:27;24.40;88.20
27376;DHT22;14844;51.302;6.354;2022-08-14T07:06:13;24.60;87.40
27376;DHT22;14844;51.302;6.354;2022-08-14T07:08:39;24.70;87.00
27376;DHT22;14844;51.302;6.354;2022-08-14T07:11:04;24.80;86.40
27376;DHT22;14844;51.302;6.354;2022-08-14T07:13:30;24.90;85.70
27376;DHT22;14844;51.302;6.354;2022-08-14T07:15:57;25.10;85.20
27376;DHT22;14844;51.302;6.354;2022-08-14T07:18:30;25.20;85.00
27376;DHT22;14844;51.302;6.354;2022-08-14T07:20:58;25.40;84.70
27376;DHT22;14844;51.302;6.354;2022-08-14T07:23:24;25.50;84.00
27376;DHT22;14844;51.302;6.354;2022-08-14T07:25:55;25.70;83.90
27376;DHT22;14844;51.302;6.354;2022-08-14T07:28:23;25.70;83.00
27376;DHT22;14844;51.302;6.354;2022-08-14T07:30:54;25.90;82.70
27376;DHT22;14844;51.302;6.354;2022-08-14T07:33:24;26.10;81.80
27376;DHT22;14844;51.302;6.354;2022-08-14T07:35:50;26.20;81.10
27376;DHT22;14844;51.302;6.354;2022-08-14T07:38:18;26.40;79.90
27376;DHT22;14844;51.302;6.354;2022-08-14T07:40:45;26.40;79.70
27376;DHT22;14844;51.302;6.354;2022-08-14T07:43:11;26.50;79.60
27376;DHT22;14844;51.302;6.354;2022-08-14T07:45:38;26.60;79.30
27376;DHT22;14844;51.302;6.354;2022-08-14T07:48:04;26.80;79.10
27376;DHT22;14844;51.302;6.354;2022-08-14T07:50:32;26.90;78.00
27376;DHT22;14844;51.302;6.354;2022-08-14T07:52:57;27.00;77.30
27376;DHT22;14844;51.302;6.354;2022-08-14T07:55:24;27.10;76.60
27376;DHT22;14844;51.302;6.354;2022-08-14T07:57:50;27.20;76.20
27376;DHT22;14844;51.302;6.354;2022-08-14T08:00:18;27.20;75.60
27376;DHT22;14844;51.302;6.354;2022-08-14T08:02:46;27.20;75.50
27376;DHT22;14844;51.302;6.354;2022-08-14T08:05:14;27.30;75.60
27376;DHT22;14844;51.302;6.354;2022-08-14T08:07:41;27.40;75.60
27376;DHT22;14844;51.302;6.354;2022-08-14T08:10:16;27.60;75.00
27376;DHT22;14844;51.302;6.354;2022-08-14T08:15:25;27.60;74.80
27376;DHT22;14844;51.302;6.354;2022-08-14T08:17:51;27.70;74.80
27376;DHT22;14844;51.302;6.354;2022-08-14T08:20:19;27.90;74.80
27376;DHT22;14844;51.302;6.354;2022-08-14T08:22:46;28.10;74.00
27376;DHT22;14844;51.302;6.354;2022-08-14T08:25:11;28.20;73.70
27376;DHT22;14844;51.302;6.354;2022-08-14T08:27:38;28.40;72.90
27376;DHT22;14844;51.302;6.354;2022-08-14T08:30:08;28.60;72.80
27376;DHT22;14844;51.302;6.354;2022-08-14T08:32:39;28.60;71.60
27376;DHT22;14844;51.302;6.354;2022-08-14T08:35:09;28.70;71.70
27376;DHT22;14844;51.302;6.354;2022-08-14T08:37:35;28.60;71.20
27376;DHT22;14844;51.302;6.354;2022-08-14T08:40:01;28.60;72.10
27376;DHT22;14844;51.302;6.354;2022-08-14T08:42:27;28.70;71.00
27376;DHT22;14844;51.302;6.354;2022-08-14T08:44:53;28.70;71.70
27376;DHT22;14844;51.302;6.354;2022-08-14T08:47:19;28.90;70.90
27376;DHT22;14844;51.302;6.354;2022-08-14T08:49:44;29.10;69.90
27376;DHT22;14844;51.302;6.354;2022-08-14T08:52:10;29.20;69.80
27376;DHT22;14844;51.302;6.354;2022-08-14T08:54:37;29.40;69.10
27376;DHT22;14844;51.302;6.354;2022-08-14T08:57:10;29.50;68.50
27376;DHT22;14844;51.302;6.354;2022-08-14T08:59:36;29.50;67.30
27376;DHT22;14844;51.302;6.354;2022-08-14T09:02:07;29.70;67.90
27376;DHT22;14844;51.302;6.354;2022-08-14T09:04:39;29.70;66.20
27376;DHT22;14844;51.302;6.354;2022-08-14T09:07:06;29.60;66.60
27376;DHT22;14844;51.302;6.354;2022-08-14T09:09:33;29.70;65.70
27376;DHT22;14844;51.302;6.354;2022-08-14T09:12:00;29.70;65.60
27376;DHT22;14844;51.302;6.354;2022-08-14T09:14:30;29.80;65.80
27376;DHT22;14844;51.302;6.354;2022-08-14T09:16:58;30.00;66.20
27376;DHT22;14844;51.302;6.354;2022-08-14T09:19:24;30.10;64.90
27376;DHT22;14844;51.302;6.354;2022-08-14T09:21:50;30.20;64.80
27376;DHT22;14844;51.302;6.354;2022-08-14T09:24:18;30.30;63.70
27376;DHT22;14844;51.302;6.354;2022-08-14T09:26:44;30.50;64.00
27376;DHT22;14844;51.302;6.354;2022-08-14T09:29:10;30.60;63.50
27376;DHT22;14844;51.302;6.354;2022-08-14T09:31:42;30.60;61.70
27376;DHT22;14844;51.302;6.354;2022-08-14T09:34:20;30.60;62.40
27376;DHT22;14844;51.302;6.354;2022-08-14T09:42:23;30.80;63.00
27376;DHT22;14844;51.302;6.354;2022-08-14T09:45:06;30.70;62.70
27376;DHT22;14844;51.302;6.354;2022-08-14T09:47:55;30.50;61.20
27376;DHT22;14844;51.302;6.354;2022-08-14T09:50:26;30.60;62.10
27376;DHT22;14844;51.302;6.354;2022-08-14T09:53:00;30.80;61.30
27376;DHT22;14844;51.302;6.354;2022-08-14T09:55:29;31.00;60.40
27376;DHT22;14844;51.302;6.354;2022-08-14T10:00:43;31.40;59.40
27376;DHT22;14844;51.302;6.354;2022-08-14T10:03:08;31.30;58.40
27376;DHT22;14844;51.302;6.354;2022-08-14T10:05:35;31.10;57.70
27376;DHT22;14844;51.302;6.354;2022-08-14T10:08:16;31.10;58.10
27376;DHT22;14844;51.302;6.354;2022-08-14T10:10:42;31.10;57.80
27376;DHT22;14844;51.302;6.354;2022-08-14T10:13:21;31.30;57.00
27376;DHT22;14844;51.302;6.354;2022-08-14T10:15:47;31.50;56.30
27376;DHT22;14844;51.302;6.354;2022-08-14T10:18:15;31.60;55.60
27376;DHT22;14844;51.302;6.354;2022-08-14T10:20:51;31.80;54.50
27376;DHT22;14844;51.302;6.354;2022-08-14T10:23:23;32.00;54.80
27376;DHT22;14844;51.302;6.354;2022-08-14T10:26:13;32.00;54.80
27376;DHT22;14844;51.302;6.354;2022-08-14T10:28:43;32.20;55.20
27376;DHT22;14844;51.302;6.354;2022-08-14T10:33:43;32.00;55.50
27376;DHT22;14844;51.302;6.354;2022-08-14T10:36:10;32.00;55.00
27376;DHT22;14844;51.302;6.354;2022-08-14T10:38:36;32.00;54.80
27376;DHT22;14844;51.302;6.354;2022-08-14T10:41:13;32.00;54.60
27376;DHT22;14844;51.302;6.354;2022-08-14T10:43:44;32.00;53.60
27376;DHT22;14844;51.302;6.354;2022-08-14T10:46:58;32.00;54.60
27376;DHT22;14844;51.302;6.354;2022-08-14T10:49:28;32.10;53.00
27376;DHT22;14844;51.302;6.354;2022-08-14T10:54:41;32.50;51.70
27376;DHT22;14844;51.302;6.354;2022-08-14T10:57:11;32.50;51.50
27376;DHT22;14844;51.302;6.354;2022-08-14T10:59:58;32.80;50.80
27376;DHT22;14844;51.302;6.354;2022-08-14T11:02:28;33.20;50.70
27376;DHT22;14844;51.302;6.354;2022-08-14T11:05:06;33.20;48.50
27376;DHT22;14844;51.302;6.354;2022-08-14T11:07:34;33.30;48.20
27376;DHT22;14844;51.302;6.354;2022-08-14T11:10:04;33.40;49.00
27376;DHT22;14844;51.302;6.354;2022-08-14T11:13:02;33.40;47.10
27376;DHT22;14844;51.302;6.354;2022-08-14T11:15:29;33.40;47.10
27376;DHT22;14844;51.302;6.354;2022-08-14T11:17:55;33.50;47.70
27376;DHT22;14844;51.302;6.354;2022-08-14T11:20:25;33.40;47.50
27376;DHT22;14844;51.302;6.354;2022-08-14T11:22:54;33.50;47.80
27376;DHT22;14844;51.302;6.354;2022-08-14T11:25:21;33.50;46.60
27376;DHT22;14844;51.302;6.354;2022-08-14T11:27:52;33.50;46.60
27376;DHT22;14844;51.302;6.354;2022-08-14T11:30:20;33.70;46.70
27376;DHT22;14844;51.302;6.354;2022-08-14T11:32:48;33.80;45.90
27376;DHT22;14844;51.302;6.354;2022-08-14T11:35:17;33.80;46.40
27376;DHT22;14844;51.302;6.354;2022-08-14T11:37:57;33.80;46.50
27376;DHT22;14844;51.302;6.354;2022-08-14T11:40:26;33.90;46.20
27376;DHT22;14844;51.302;6.354;2022-08-14T11:42:53;34.10;46.30
27376;DHT22;14844;51.302;6.354;2022-08-14T11:45:22;34.10;45.40
27376;DHT22;14844;51.302;6.354;2022-08-14T11:47:48;34.30;44.70
27376;DHT22;14844;51.302;6.354;2022-08-14T11:50:26;34.20;45.10
27376;DHT22;14844;51.302;6.354;2022-08-14T11:52:53;34.10;45.50
27376;DHT22;14844;51.302;6.354;2022-08-14T11:55:23;34.10;44.80
27376;DHT22;14844;51.302;6.354;2022-08-14T11:58:02;34.20;45.20
27376;DHT22;14844;51.302;6.354;2022-08-14T12:00:29;34.30;45.80
27376;DHT22;14844;51.302;6.354;2022-08-14T12:02:57;34.40;46.70
27376;DHT22;14844;51.302;6.354;2022-08-14T12:05:34;34.50;44.50
27376;DHT22;14844;51.302;6.354;2022-08-14T12:08:02;34.50;44.20
27376;DHT22;14844;51.302;6.354;2022-08-14T12:10:32;34.60;44.80
27376;DHT22;14844;51.302;6.354;2022-08-14T12:12:58;34.60;43.80
27376;DHT22;14844;51.302;6.354;2022-08-14T12:15:34;34.50;44.10
27376;DHT22;14844;51.302;6.354;2022-08-14T12:18:03;34.40;43.60
27376;DHT22;14844;51.302;6.354;2022-08-14T12:20:40;34.40;43.60
27376;DHT22;14844;51.302;6.354;2022-08-14T12:23:23;34.20;43.60
27376;DHT22;14844;51.302;6.354;2022-08-14T12:26:04;33.80;44.20
27376;DHT22;14844;51.302;6.354;2022-08-14T12:28:30;33.60;43.80
27376;DHT22;14844;51.302;6.354;2022-08-14T12:30:56;33.70;46.40
27376;DHT22;14844;51.302;6.354;2022-08-14T12:33:29;33.90;43.60
27376;DHT22;14844;51.302;6.354;2022-08-14T12:35:59;34.00;43.40
27376;DHT22;14844;51.302;6.354;2022-08-14T12:38:51;34.10;43.90
27376;DHT22;14844;51.302;6.354;2022-08-14T12:41:21;33.90;44.00
27376;DHT22;14844;51.302;6.354;2022-08-14T12:43:48;34.00;44.10
27376;DHT22;14844;51.302;6.354;2022-08-14T12:46:28;34.20;43.50
27376;DHT22;14844;51.302;6.354;2022-08-14T12:48:56;34.40;42.70
27376;DHT22;14844;51.302;6.354;2022-08-14T12:51:25;34.70;42.10
27376;DHT22;14844;51.302;6.354;2022-08-14T12:53:52;34.90;41.60
27376;DHT22;14844;51.302;6.354;2022-08-14T12:56:19;35.00;39.80
27376;DHT22;14844;51.302;6.354;2022-08-14T12:58:47;35.10;39.80
27376;DHT22;14844;51.302;6.354;2022-08-14T13:01:28;35.10;40.50
27376;DHT22;14844;51.302;6.354;2022-08-14T13:04:05;34.70;40.20
27376;DHT22;14844;51.302;6.354;2022-08-14T13:06:34;34.60;39.40
27376;DHT22;14844;51.302;6.354;2022-08-14T13:09:01;34.90;40.70
27376;DHT22;14844;51.302;6.354;2022-08-14T13:11:33;34.90;40.50
27376;DHT22;14844;51.302;6.354;2022-08-14T13:14:02;34.40;41.50
27376;DHT22;14844;51.302;6.354;2022-08-14T13:16:28;34.20;42.30
27376;DHT22;14844;51.302;6.354;2022-08-14T13:18:56;34.30;42.60
27376;DHT22;14844;51.302;6.354;2022-08-14T13:21:27;34.80;41.50
27376;DHT22;14844;51.302;6.354;2022-08-14T13:23:55;35.00;39.60
27376;DHT22;14844;51.302;6.354;2022-08-14T13:26:25;34.70;40.90
27376;DHT22;14844;51.302;6.354;2022-08-14T13:28:51;35.00;41.60
27376;DHT22;14844;51.302;6.354;2022-08-14T13:31:21;35.30;39.30
27376;DHT22;14844;51.302;6.354;2022-08-14T13:33:48;35.30;39.20
27376;DHT22;14844;51.302;6.354;2022-08-14T13:36:14;35.40;38.90
27376;DHT22;14844;51.302;6.354;2022-08-14T13:38:42;35.40;38.80
27376;DHT22;14844;51.302;6.354;2022-08-14T13:41:09;35.40;38.50
27376;DHT22;14844;51.302;6.354;2022-08-14T13:43:36;35.60;39.20
27376;DHT22;14844;51.302;6.354;2022-08-14T13:46:05;35.50;37.90
27376;DHT22;14844;51.302;6.354;2022-08-14T13:48:31;35.20;38.30
27376;DHT22;14844;51.302;6.354;2022-08-14T13:50:57;35.20;40.70
27376;DHT22;14844;51.302;6.354;2022-08-14T13:53:24;35.20;39.50
27376;DHT22;14844;51.302;6.354;2022-08-14T13:55:51;35.20;39.60
27376;DHT22;14844;51.302;6.354;2022-08-14T13:58:20;35.10;39.60
27376;DHT22;14844;51.302;6.354;2022-08-14T14:00:49;34.70;40.50
27376;DHT22;14844;51.302;6.354;2022-08-14T14:03:18;34.60;40.30
27376;DHT22;14844;51.302;6.354;2022-08-14T14:05:49;34.60;40.50
27376;DHT22;14844;51.302;6.354;2022-08-14T14:08:16;34.90;40.40
27376;DHT22;14844;51.302;6.354;2022-08-14T14:10:42;35.20;39.30
27376;DHT22;14844;51.302;6.354;2022-08-14T14:13:08;35.40;38.80
27376;DHT22;14844;51.302;6.354;2022-08-14T14:15:35;35.70;39.50
27376;DHT22;14844;51.302;6.354;2022-08-14T14:18:02;35.90;38.90
27376;DHT22;14844;51.302;6.354;2022-08-14T14:20:27;35.80;38.90
27376;DHT22;14844;51.302;6.354;2022-08-14T14:22:53;35.90;38.60
27376;DHT22;14844;51.302;6.354;2022-08-14T14:25:19;35.90;38.30
27376;DHT22;14844;51.302;6.354;2022-08-14T14:27:48;35.60;38.20
27376;DHT22;14844;51.302;6.354;2022-08-14T14:30:15;35.30;38.20
27376;DHT22;14844;51.302;6.354;2022-08-14T14:32:42;35.20;38.50
27376;DHT22;14844;51.302;6.354;2022-08-14T14:35:11;35.00;38.90
27376;DHT22;14844;51.302;6.354;2022-08-14T14:37:39;34.90;38.70
27376;DHT22;14844;51.302;6.354;2022-08-14T14:40:06;34.50;38.80
27376;DHT22;14844;51.302;6.354;2022-08-14T14:42:32;34.20;39.20
27376;DHT22;14844;51.302;6.354;2022-08-14T14:45:26;34.20;39.30
27376;DHT22;14844;51.302;6.354;2022-08-14T14:47:53;34.20;38.80
27376;DHT22;14844;51.302;6.354;2022-08-14T14:50:20;34.40;39.10
27376;DHT22;14844;51.302;6.354;2022-08-14T14:52:48;35.00;37.90
27376;DHT22;14844;51.302;6.354;2022-08-14T14:55:16;35.70;37.60
27376;DHT22;14844;51.302;6.354;2022-08-14T14:57:45;36.60;36.60
27376;DHT22;14844;51.302;6.354;2022-08-14T15:00:13;36.60;35.90
27376;DHT22;14844;51.302;6.354;2022-08-14T15:02:42;37.20;36.60
27376;DHT22;14844;51.302;6.354;2022-08-14T15:05:09;37.90;35.10
27376;DHT22;14844;51.302;6.354;2022-08-14T15:07:36;38.70;34.40
27376;DHT22;14844;51.302;6.354;2022-08-14T15:10:04;39.20;33.10
27376;DHT22;14844;51.302;6.354;2022-08-14T15:12:30;39.00;32.70
27376;DHT22;14844;51.302;6.354;2022-08-14T15:14:56;39.10;32.40
27376;DHT22;14844;51.302;6.354;2022-08-14T15:17:21;38.90;32.90
27376;DHT22;14844;51.302;6.354;2022-08-14T15:19:48;38.80;33.30
27376;DHT22;14844;51.302;6.354;2022-08-14T15:22:15;39.50;33.70
27376;DHT22;14844;51.302;6.354;2022-08-14T15:24:40;39.90;32.30
27376;DHT22;14844;51.302;6.354;2022-08-14T15:27:06;40.00;32.00
27376;DHT22;14844;51.302;6.354;2022-08-14T15:29:34;40.60;31.10
27376;DHT22;14844;51.302;6.354;2022-08-14T15:32:03;41.10;30.50
27376;DHT22;14844;51.302;6.354;2022-08-14T15:34:29;41.00;30.70
27376;DHT22;14844;51.302;6.354;2022-08-14T15:36:55;41.10;30.90
27376;DHT22;14844;51.302;6.354;2022-08-14T15:39:21;40.70;30.40
27376;DHT22;14844;51.302;6.354;2022-08-14T15:41:46;40.30;30.20
27376;DHT22;14844;51.302;6.354;2022-08-14T15:44:14;39.90;30.60
27376;DHT22;14844;51.302;6.354;2022-08-14T15:46:40;39.50;31.30
27376;DHT22;14844;51.302;6.354;2022-08-14T15:49:05;39.70;30.70
27376;DHT22;14844;51.302;6.354;2022-08-14T15:51:33;39.50;31.00
27376;DHT22;14844;51.302;6.354;2022-08-14T15:53:58;39.10;31.80
27376;DHT22;14844;51.302;6.354;2022-08-14T15:56:24;38.50;31.90
27376;DHT22;14844;51.302;6.354;2022-08-14T15:58:49;37.90;33.00